Time;durP1;ratioP1;P1;durP2;ratioP2;P2;SDS_P1;SDS_P2;PMS_P1;PMS_P2;Temp;Humidity;BMP_temperature;BMP_pressure;BME280_temperature;BME280_humidity;BME280_pressure;Samples;Min_cycle;Max_cycle;Signal;HPM_P1;HPM_P2
2021/11/27 00:02:05;;;;;;;4.97;3.38;;;1.00;99.90;;;;;;5029044;28;20052;-79
2021/11/27 00:04:31;;;;;;;5.85;3.70;;;1.00;99.90;;;;;;5046661;28;20025;-79
2021/11/27 00:06:57;;;;;;;7.20;4.07;;;1.00;99.90;;;;;;5044109;28;20025;-79
2021/11/27 00:09:22;;;;;;;6.68;4.07;;;1.00;99.90;;;;;;5022373;28;20461;-80
2021/11/27 00:11:48;;;;;;;6.68;4.40;;;0.90;99.90;;;;;;5037613;28;20032;-80
2021/11/27 00:14:14;;;;;;;7.47;4.63;;;0.90;99.90;;;;;;5059045;28;20029;-79
2021/11/27 00:16:40;;;;;;;7.43;4.60;;;0.90;99.90;;;;;;5039946;28;20097;-78
2021/11/27 00:19:13;;;;;;;7.10;5.13;;;0.90;99.90;;;;;;5021735;28;20040;-79
2021/11/27 00:21:42;;;;;;;6.05;3.67;;;0.90;99.90;;;;;;5038305;28;20029;-79
2021/11/27 00:24:08;;;;;;;7.63;4.22;;;0.90;99.90;;;;;;5037834;28;20026;-79
2021/11/27 00:26:34;;;;;;;6.25;3.97;;;0.90;99.90;;;;;;5038109;28;20489;-79
2021/11/27 00:29:00;;;;;;;6.55;4.22;;;1.00;99.90;;;;;;5038203;28;20068;-79
2021/11/27 00:31:28;;;;;;;6.82;3.65;;;1.00;99.90;;;;;;5038594;28;20049;-79
2021/11/27 00:33:55;;;;;;;5.90;4.03;;;1.00;99.90;;;;;;5023083;28;20124;-80
2021/11/27 00:36:22;;;;;;;5.88;3.35;;;1.00;99.90;;;;;;5038611;28;20442;-80
2021/11/27 00:38:48;;;;;;;5.03;3.58;;;1.00;99.90;;;;;;5020041;28;20071;-80
2021/11/27 00:41:14;;;;;;;6.75;3.72;;;0.90;99.90;;;;;;5027650;28;20013;-80
2021/11/27 00:43:41;;;;;;;5.03;3.30;;;0.90;99.90;;;;;;5054789;28;20032;-79
2021/11/27 00:46:07;;;;;;;6.53;3.72;;;0.90;99.90;;;;;;5046403;28;20081;-79
2021/11/27 00:48:33;;;;;;;4.43;3.17;;;0.90;99.90;;;;;;5055425;28;20024;-79
2021/11/27 00:51:07;;;;;;;5.50;3.15;;;0.90;99.90;;;;;;5035972;28;20033;-79
2021/11/27 00:53:33;;;;;;;5.85;3.53;;;0.90;99.90;;;;;;5036810;28;20021;-79
2021/11/27 00:55:59;;;;;;;4.65;2.80;;;0.90;99.90;;;;;;5037316;28;20018;-80
2021/11/27 00:58:25;;;;;;;4.43;3.03;;;0.90;99.90;;;;;;5019058;28;20054;-79
2021/11/27 01:00:58;;;;;;;3.75;2.72;;;1.00;99.90;;;;;;5016779;28;20033;-79
2021/11/27 01:03:27;;;;;;;4.43;3.10;;;1.00;99.90;;;;;;5018581;28;20049;-80
2021/11/27 01:05:53;;;;;;;4.22;2.83;;;1.10;99.90;;;;;;4999236;28;20026;-82
2021/11/27 01:08:19;;;;;;;3.72;2.97;;;1.10;99.90;;;;;;5016883;28;20038;-80
2021/11/27 01:10:53;;;;;;;5.07;3.40;;;1.20;99.90;;;;;;5040808;28;20166;-80
2021/11/27 01:13:19;;;;;;;4.43;2.83;;;1.10;99.90;;;;;;5041927;28;20043;-80
2021/11/27 01:15:45;;;;;;;5.40;3.55;;;1.20;99.90;;;;;;5056029;28;20033;-80
2021/11/27 01:18:11;;;;;;;5.50;3.40;;;1.10;99.90;;;;;;5056757;28;20032;-79
2021/11/27 01:20:45;;;;;;;5.15;3.22;;;1.10;99.90;;;;;;5043350;28;20032;-79
2021/11/27 01:23:11;;;;;;;6.68;3.65;;;1.10;99.90;;;;;;5018942;28;20021;-79
2021/11/27 01:25:38;;;;;;;3.83;3.10;;;1.10;99.90;;;;;;5036565;28;20025;-80
2021/11/27 01:28:04;;;;;;;4.15;2.88;;;1.10;99.90;;;;;;5036372;28;20409;-79
2021/11/27 01:30:30;;;;;;;5.68;3.88;;;1.10;99.90;;;;;;5035945;28;20391;-79
2021/11/27 01:32:56;;;;;;;3.75;2.72;;;1.10;99.90;;;;;;5035772;28;20065;-80
2021/11/27 01:35:23;;;;;;;5.53;3.22;;;1.20;99.90;;;;;;5036489;28;20160;-80
2021/11/27 01:37:49;;;;;;;4.25;3.30;;;1.20;99.90;;;;;;5035993;28;20160;-79
2021/11/27 01:40:19;;;;;;;5.00;2.90;;;1.20;99.90;;;;;;5036357;28;20059;-80
2021/11/27 01:42:46;;;;;;;4.60;3.05;;;1.20;99.90;;;;;;5034267;28;20044;-80
2021/11/27 01:45:14;;;;;;;3.50;3.13;;;1.20;99.90;;;;;;5056208;28;20028;-79
2021/11/27 01:47:44;;;;;;;3.70;2.72;;;1.20;99.90;;;;;;5056251;28;20454;-78
2021/11/27 01:50:10;;;;;;;3.53;2.38;;;1.20;99.90;;;;;;5055672;28;20630;-78
2021/11/27 01:52:37;;;;;;;3.42;2.72;;;1.20;99.90;;;;;;5036290;28;20017;-79
2021/11/27 01:55:03;;;;;;;4.72;3.00;;;1.20;99.90;;;;;;5018847;28;20076;-79
2021/11/27 01:57:29;;;;;;;4.18;2.53;;;1.30;99.90;;;;;;5037142;28;20478;-80
2021/11/27 01:59:55;;;;;;;5.72;2.85;;;1.30;99.90;;;;;;5047491;28;20040;-80
2021/11/27 02:02:22;;;;;;;3.20;2.25;;;1.30;99.90;;;;;;5043044;28;20013;-81
2021/11/27 02:04:47;;;;;;;4.25;2.85;;;1.30;99.90;;;;;;5057924;28;20071;-80
2021/11/27 02:07:15;;;;;;;3.25;2.50;;;1.40;99.90;;;;;;5046661;28;20029;-81
2021/11/27 02:09:42;;;;;;;3.35;2.35;;;1.40;99.90;;;;;;5042666;28;20029;-80
2021/11/27 02:12:11;;;;;;;3.13;2.00;;;1.40;99.90;;;;;;5043055;22;20029;-82
2021/11/27 02:14:39;;;;;;;2.80;1.92;;;1.50;99.90;;;;;;5045335;28;20052;-81
2021/11/27 02:17:05;;;;;;;3.20;2.42;;;1.50;99.90;;;;;;5057012;28;20067;-82
2021/11/27 02:19:31;;;;;;;4.30;2.53;;;1.50;99.90;;;;;;5055043;28;20029;-81
2021/11/27 02:21:57;;;;;;;3.25;2.33;;;1.60;99.90;;;;;;5048359;28;20140;-80
2021/11/27 02:24:23;;;;;;;3.67;2.25;;;1.60;99.90;;;;;;5059818;28;20039;-83
2021/11/27 02:26:50;;;;;;;4.88;2.78;;;1.60;99.90;;;;;;5059527;28;20048;-81
2021/11/27 02:29:24;;;;;;;2.88;2.13;;;1.60;99.90;;;;;;5059991;28;20021;-81
2021/11/27 02:31:51;;;;;;;2.30;1.95;;;1.60;99.90;;;;;;5044581;28;20030;-80
2021/11/27 02:34:17;;;;;;;2.67;2.00;;;1.60;99.90;;;;;;5023242;28;20025;-82
2021/11/27 02:36:46;;;;;;;3.60;2.42;;;1.60;99.90;;;;;;5041103;28;20021;-82
2021/11/27 02:39:12;;;;;;;3.30;2.13;;;1.60;99.90;;;;;;5040011;28;20030;-82
2021/11/27 02:41:39;;;;;;;3.65;1.77;;;1.70;99.90;;;;;;5040751;28;20025;-80
2021/11/27 02:44:08;;;;;;;2.25;1.70;;;1.70;99.90;;;;;;5031186;28;20073;-81
2021/11/27 02:46:38;;;;;;;3.25;1.90;;;1.60;99.90;;;;;;5040138;28;20090;-80
2021/11/27 02:49:05;;;;;;;2.83;1.80;;;1.70;99.90;;;;;;5023458;28;20014;-81
2021/11/27 02:51:32;;;;;;;2.55;1.90;;;1.70;99.90;;;;;;5040968;28;20026;-80
2021/11/27 02:53:58;;;;;;;4.40;2.03;;;1.80;99.90;;;;;;5040422;28;20087;-80
2021/11/27 02:56:23;;;;;;;2.80;1.58;;;1.80;99.90;;;;;;5040487;28;20049;-81
2021/11/27 02:58:49;;;;;;;1.88;1.55;;;1.80;99.90;;;;;;5040384;28;20038;-80
2021/11/27 03:01:15;;;;;;;2.67;1.80;;;1.80;99.90;;;;;;5023881;28;20030;-81
2021/11/27 03:03:41;;;;;;;2.38;1.85;;;1.80;99.90;;;;;;5053767;28;20036;-80
2021/11/27 03:06:07;;;;;;;2.47;1.60;;;1.80;99.90;;;;;;5060462;28;20085;-80
2021/11/27 03:08:34;;;;;;;3.10;2.17;;;1.80;99.90;;;;;;5060693;28;20486;-81
2021/11/27 03:11:01;;;;;;;2.92;1.77;;;1.80;99.90;;;;;;5024263;28;20044;-80
2021/11/27 03:13:31;;;;;;;2.80;1.60;;;1.80;99.90;;;;;;5028700;28;20029;-80
2021/11/27 03:15:57;;;;;;;3.53;2.35;;;1.90;99.90;;;;;;5055768;28;20120;-80
2021/11/27 03:18:23;;;;;;;2.80;1.80;;;1.90;99.90;;;;;;5056422;28;20029;-80
2021/11/27 03:20:51;;;;;;;2.63;1.80;;;1.90;99.90;;;;;;5039452;28;20127;-79
2021/11/27 03:23:18;;;;;;;3.33;1.63;;;1.90;99.90;;;;;;5039964;28;20048;-82
2021/11/27 03:25:44;;;;;;;2.88;2.15;;;1.90;99.90;;;;;;5056733;28;20064;-81
2021/11/27 03:28:11;;;;;;;2.60;1.90;;;1.90;99.90;;;;;;5052785;28;20021;-82
2021/11/27 03:30:36;;;;;;;2.30;1.58;;;2.00;99.90;;;;;;5040425;28;20040;-82
2021/11/27 03:33:02;;;;;;;2.25;1.63;;;2.00;99.90;;;;;;5028157;28;20482;-81
2021/11/27 03:35:28;;;;;;;2.25;1.77;;;2.00;99.90;;;;;;5028109;28;20049;-81
2021/11/27 03:37:54;;;;;;;2.22;1.73;;;2.00;99.90;;;;;;5028670;28;20026;-82
2021/11/27 03:40:21;;;;;;;2.85;2.00;;;2.10;99.90;;;;;;5032928;28;20037;-82
2021/11/27 03:42:47;;;;;;;2.58;1.90;;;2.20;99.90;;;;;;5038838;28;20013;-82
2021/11/27 03:45:15;;;;;;;2.47;1.80;;;2.20;99.60;;;;;;5039077;28;20034;-82
2021/11/27 03:47:55;;;;;;;2.15;1.63;;;2.20;99.50;;;;;;5028718;28;20084;-81
2021/11/27 03:50:21;;;;;;;7.72;1.88;;;2.20;99.50;;;;;;5046458;28;20029;-82
2021/11/27 03:52:47;;;;;;;2.35;1.85;;;2.20;99.50;;;;;;5047130;28;20021;-82
2021/11/27 03:55:13;;;;;;;4.78;2.10;;;2.20;99.50;;;;;;5046532;28;20143;-80
2021/11/27 03:57:39;;;;;;;2.83;2.05;;;2.20;99.60;;;;;;5046291;28;20029;-83
2021/11/27 04:00:08;;;;;;;2.85;1.95;;;2.20;99.60;;;;;;5045762;28;20116;-83
2021/11/27 04:02:34;;;;;;;2.95;2.30;;;2.20;99.60;;;;;;5027881;28;20113;-82
2021/11/27 04:05:00;;;;;;;2.25;1.95;;;2.20;99.70;;;;;;5045579;28;20025;-81
2021/11/27 04:07:26;;;;;;;2.47;2.08;;;2.20;99.60;;;;;;5045072;28;20014;-81
2021/11/27 04:09:51;;;;;;;2.20;1.60;;;2.20;99.50;;;;;;5028204;28;20041;-83
2021/11/27 04:12:17;;;;;;;2.33;1.88;;;2.20;99.50;;;;;;5044755;28;20026;-81
2021/11/27 04:14:43;;;;;;;1.92;1.63;;;2.20;99.70;;;;;;5020385;28;20055;-81
2021/11/27 04:17:08;;;;;;;3.20;2.22;;;2.20;99.70;;;;;;5027376;28;20025;-82
2021/11/27 04:19:34;;;;;;;2.88;2.00;;;2.20;99.70;;;;;;5049944;28;20018;-82
2021/11/27 04:22:00;;;;;;;2.60;2.08;;;2.20;99.60;;;;;;5029882;28;20040;-81
2021/11/27 04:24:26;;;;;;;3.53;2.28;;;2.20;99.70;;;;;;5043200;28;20073;-80
2021/11/27 04:26:52;;;;;;;3.60;2.25;;;2.20;99.80;;;;;;5056758;28;20064;-80
2021/11/27 04:29:18;;;;;;;2.90;2.35;;;2.20;99.80;;;;;;5044820;28;20030;-82
2021/11/27 04:31:44;;;;;;;2.88;2.35;;;2.30;99.80;;;;;;5024518;28;20033;-81
2021/11/27 04:34:10;;;;;;;2.88;2.28;;;2.20;99.70;;;;;;5019359;28;20382;-80
2021/11/27 04:36:36;;;;;;;2.60;2.40;;;2.20;99.80;;;;;;5039352;28;20030;-82
2021/11/27 04:39:03;;;;;;;3.17;2.05;;;2.20;99.80;;;;;;5023700;28;20040;-81
2021/11/27 04:41:29;;;;;;;3.30;2.30;;;2.30;99.80;;;;;;5024289;28;20026;-81
2021/11/27 04:43:55;;;;;;;3.28;2.15;;;2.30;99.70;;;;;;5031802;28;20040;-80
2021/11/27 04:46:20;;;;;;;3.03;2.40;;;2.30;99.70;;;;;;5004875;28;20046;-81
2021/11/27 04:48:46;;;;;;;6.65;2.58;;;2.30;99.60;;;;;;5022274;28;20033;-82
2021/11/27 04:51:12;;;;;;;3.90;2.42;;;2.30;99.70;;;;;;5022238;28;20026;-82
2021/11/27 04:53:37;;;;;;;3.95;2.60;;;2.40;99.40;;;;;;5021835;28;20378;-82
2021/11/27 04:56:03;;;;;;;4.72;2.10;;;2.40;99.40;;;;;;5037971;28;20112;-81
2021/11/27 04:58:30;;;;;;;3.67;2.80;;;2.40;99.50;;;;;;5042754;28;20025;-84
2021/11/27 05:00:56;;;;;;;4.70;2.83;;;2.40;99.50;;;;;;5044212;28;20017;-81
2021/11/27 05:03:23;;;;;;;2.83;2.50;;;2.30;99.50;;;;;;5041858;28;20077;-83
2021/11/27 05:05:49;;;;;;;5.50;3.08;;;2.30;99.60;;;;;;5041292;28;20029;-83
2021/11/27 05:08:15;;;;;;;4.43;3.00;;;2.40;99.80;;;;;;5040558;28;20036;-83
2021/11/27 05:10:41;;;;;;;3.97;2.78;;;2.40;99.80;;;;;;5041851;28;20033;-80
2021/11/27 05:13:07;;;;;;;3.75;2.63;;;2.40;99.80;;;;;;5042413;28;20037;-82
2021/11/27 05:15:33;;;;;;;3.88;3.10;;;2.40;99.80;;;;;;5009894;28;20054;-82
2021/11/27 05:17:58;;;;;;;5.85;4.32;;;2.40;99.80;;;;;;5022975;28;20112;-80
2021/11/27 05:20:24;;;;;;;5.50;3.30;;;2.50;99.80;;;;;;5022132;28;20022;-83
2021/11/27 05:22:50;;;;;;;5.03;3.05;;;2.50;99.90;;;;;;5022077;28;20018;-81
2021/11/27 05:25:16;;;;;;;5.32;3.47;;;2.40;99.90;;;;;;5038486;28;20478;-81
2021/11/27 05:27:41;;;;;;;4.45;3.20;;;2.50;99.90;;;;;;5022574;28;20018;-82
2021/11/27 05:30:10;;;;;;;4.65;3.30;;;2.40;99.90;;;;;;5024207;28;20030;-82
2021/11/27 05:32:49;;;;;;;6.35;3.40;;;2.50;99.90;;;;;;5003776;28;20029;-82
2021/11/27 05:35:15;;;;;;;5.90;3.25;;;2.50;99.90;;;;;;5003598;28;20045;-82
2021/11/27 05:37:43;;;;;;;4.95;3.60;;;2.50;99.90;;;;;;5038161;28;20029;-83
2021/11/27 05:40:10;;;;;;;5.13;3.35;;;2.60;99.90;;;;;;5037807;28;20037;-82
2021/11/27 05:42:36;;;;;;;4.82;3.25;;;2.50;99.90;;;;;;5029047;28;20048;-81
2021/11/27 05:45:03;;;;;;;4.75;3.47;;;2.50;99.90;;;;;;5034322;28;20079;-81
2021/11/27 05:47:29;;;;;;;3.40;2.58;;;2.50;99.90;;;;;;5032609;28;20029;-83
2021/11/27 05:49:55;;;;;;;4.68;3.42;;;2.50;99.90;;;;;;5025353;28;20054;-82
2021/11/27 05:52:21;;;;;;;4.68;3.42;;;2.50;99.90;;;;;;5021550;28;20029;-81
2021/11/27 05:54:47;;;;;;;3.33;3.00;;;2.60;99.90;;;;;;5023436;28;20022;-80
2021/11/27 05:57:13;;;;;;;4.65;3.13;;;2.60;99.90;;;;;;5021636;28;20026;-82
2021/11/27 05:59:39;;;;;;;3.80;2.83;;;2.60;99.90;;;;;;5021635;28;20045;-81
2021/11/27 06:02:05;;;;;;;3.22;2.42;;;2.60;99.90;;;;;;5020748;28;20089;-82
2021/11/27 06:04:31;;;;;;;3.33;2.63;;;2.60;99.90;;;;;;5021104;28;20029;-83
2021/11/27 06:06:57;;;;;;;4.90;2.85;;;2.60;99.90;;;;;;5023820;28;20033;-83
2021/11/27 06:09:24;;;;;;;2.97;2.67;;;2.70;99.90;;;;;;5041045;28;20080;-83
2021/11/27 06:11:50;;;;;;;4.78;3.33;;;2.70;99.90;;;;;;5032067;28;20061;-81
2021/11/27 06:14:15;;;;;;;3.92;2.42;;;2.70;99.90;;;;;;5032932;28;20025;-82
2021/11/27 06:16:42;;;;;;;3.67;2.95;;;2.70;99.90;;;;;;5041180;28;20021;-83
2021/11/27 06:19:08;;;;;;;4.03;2.90;;;2.80;99.90;;;;;;5042667;28;20486;-82
2021/11/27 06:21:34;;;;;;;3.05;2.53;;;2.70;99.90;;;;;;5043874;28;20025;-83
2021/11/27 06:23:59;;;;;;;3.75;2.78;;;2.80;99.90;;;;;;5044415;28;20092;-82
2021/11/27 06:26:26;;;;;;;3.42;2.55;;;2.80;99.90;;;;;;5050132;28;20029;-82
2021/11/27 06:28:52;;;;;;;4.15;2.50;;;2.80;99.90;;;;;;5027316;28;20049;-82
2021/11/27 06:31:18;;;;;;;4.15;3.08;;;2.80;99.90;;;;;;5043143;28;20029;-83
2021/11/27 06:33:43;;;;;;;4.22;2.55;;;2.90;99.90;;;;;;5025336;28;20052;-80
2021/11/27 06:36:09;;;;;;;4.07;2.20;;;2.90;99.90;;;;;;5043250;28;20026;-83
2021/11/27 06:38:35;;;;;;;4.35;2.83;;;2.90;99.90;;;;;;5043191;28;20021;-83
2021/11/27 06:41:02;;;;;;;3.25;2.42;;;2.90;99.90;;;;;;5043971;28;20556;-82
2021/11/27 06:43:27;;;;;;;2.92;2.60;;;2.90;99.90;;;;;;5042924;28;20037;-82
2021/11/27 06:45:53;;;;;;;3.25;2.45;;;2.90;99.90;;;;;;5043598;28;20026;-82
2021/11/27 06:48:19;;;;;;;3.72;2.47;;;2.90;99.90;;;;;;5046922;28;20093;-82
2021/11/27 06:50:45;;;;;;;5.28;2.65;;;2.80;99.90;;;;;;5052685;28;20025;-82
2021/11/27 06:53:11;;;;;;;5.28;3.20;;;2.80;99.90;;;;;;5053516;28;20367;-82
2021/11/27 06:55:37;;;;;;;4.80;2.72;;;2.90;99.90;;;;;;5059063;28;20030;-81
2021/11/27 06:58:03;;;;;;;2.85;2.13;;;2.90;99.90;;;;;;5059830;28;20018;-83
2021/11/27 07:00:29;;;;;;;2.13;1.70;;;2.90;99.90;;;;;;5060108;28;20025;-82
2021/11/27 07:02:55;;;;;;;2.22;1.92;;;3.00;99.90;;;;;;5039606;28;20071;-82
2021/11/27 07:05:21;;;;;;;1.85;1.70;;;3.00;99.90;;;;;;5050346;28;20026;-83
2021/11/27 07:07:46;;;;;;;3.97;2.58;;;3.10;99.90;;;;;;5030628;28;20093;-82
2021/11/27 07:10:12;;;;;;;3.83;2.58;;;3.10;99.70;;;;;;5048207;28;20033;-82
2021/11/27 07:12:38;;;;;;;3.03;2.00;;;3.10;99.50;;;;;;5049675;28;20048;-82
2021/11/27 07:15:05;;;;;;;3.03;2.08;;;3.10;99.50;;;;;;5018956;28;20038;-80
2021/11/27 07:17:31;;;;;;;2.17;1.98;;;3.20;99.50;;;;;;5043179;28;20018;-81
2021/11/27 07:19:58;;;;;;;6.00;4.03;;;3.20;99.50;;;;;;5030464;28;20053;-82
2021/11/27 07:22:25;;;;;;;4.40;3.55;;;3.20;99.40;;;;;;5028469;28;20038;-82
2021/11/27 07:24:51;;;;;;;3.75;2.63;;;3.20;99.40;;;;;;5028306;28;20395;-82
2021/11/27 07:27:17;;;;;;;3.47;2.80;;;3.20;99.40;;;;;;5012863;28;20026;-82
2021/11/27 07:29:43;;;;;;;4.28;2.30;;;3.20;99.40;;;;;;5030478;28;20026;-82
2021/11/27 07:32:09;;;;;;;4.57;2.88;;;3.20;99.40;;;;;;5026582;28;20171;-83
2021/11/27 07:34:35;;;;;;;3.90;2.65;;;3.10;99.50;;;;;;5009009;28;20164;-83
2021/11/27 07:37:01;;;;;;;4.15;2.70;;;3.10;99.60;;;;;;5026825;28;20026;-83
2021/11/27 07:39:27;;;;;;;2.83;2.40;;;3.10;99.80;;;;;;5024946;28;20503;-82
2021/11/27 07:41:53;;;;;;;3.22;2.33;;;3.10;99.90;;;;;;5025869;28;20030;-84
2021/11/27 07:44:19;;;;;;;3.35;2.35;;;3.10;99.90;;;;;;5030614;28;20041;-84
2021/11/27 07:46:53;;;;;;;3.65;2.17;;;3.20;99.90;;;;;;5029006;28;20026;-86
2021/11/27 07:49:20;;;;;;;3.05;2.30;;;3.20;99.90;;;;;;5007492;28;20030;-85
2021/11/27 07:51:46;;;;;;;3.10;2.08;;;3.30;99.90;;;;;;5026334;28;20022;-85
2021/11/27 07:54:11;;;;;;;4.30;2.50;;;3.40;99.90;;;;;;5008337;28;20036;-84
2021/11/27 07:56:40;;;;;;;3.05;2.10;;;3.50;99.90;;;;;;5024356;28;20029;-81
2021/11/27 07:59:07;;;;;;;3.88;2.60;;;3.60;99.90;;;;;;5022232;28;20030;-84
2021/11/27 08:01:33;;;;;;;4.90;2.42;;;3.50;99.80;;;;;;5029737;28;20002;-84
2021/11/27 08:03:59;;;;;;;2.85;2.40;;;3.60;99.80;;;;;;5011622;28;20025;-83
2021/11/27 08:06:25;;;;;;;2.85;2.20;;;3.60;99.60;;;;;;5035059;28;20040;-83
2021/11/27 08:08:51;;;;;;;3.13;2.50;;;3.50;99.60;;;;;;5016007;28;20026;-81
2021/11/27 08:11:18;;;;;;;2.40;2.00;;;3.60;99.60;;;;;;5050853;23;20064;-83
2021/11/27 08:13:45;;;;;;;2.35;1.90;;;3.50;99.50;;;;;;5054454;28;20135;-83
2021/11/27 08:16:12;;;;;;;2.78;2.17;;;3.50;99.40;;;;;;5065534;28;20076;-83
2021/11/27 08:18:37;;;;;;;3.45;2.13;;;3.50;99.30;;;;;;5066427;28;20060;-83
2021/11/27 08:21:04;;;;;;;2.85;2.05;;;3.50;99.40;;;;;;5063317;28;20496;-84
2021/11/27 08:23:30;;;;;;;3.50;2.20;;;3.50;99.50;;;;;;5062125;28;20033;-84
2021/11/27 08:25:56;;;;;;;3.95;2.90;;;3.50;99.60;;;;;;5045068;28;20025;-83
2021/11/27 08:28:22;;;;;;;3.00;2.33;;;3.50;99.50;;;;;;5050046;28;20116;-83
2021/11/27 08:30:48;;;;;;;4.43;2.63;;;3.50;99.50;;;;;;5049245;28;20064;-84
2021/11/27 08:33:14;;;;;;;3.40;2.20;;;3.50;99.50;;;;;;5049518;28;20033;-85
2021/11/27 08:35:39;;;;;;;5.55;2.65;;;3.50;99.60;;;;;;5050333;28;20044;-84
2021/11/27 08:38:05;;;;;;;3.92;2.67;;;3.60;99.60;;;;;;5045144;28;20029;-84
2021/11/27 08:40:31;;;;;;;4.35;2.38;;;3.70;99.50;;;;;;5059686;28;20017;-84
2021/11/27 08:42:58;;;;;;;3.67;2.50;;;3.70;99.30;;;;;;5042018;28;20021;-83
2021/11/27 08:45:24;;;;;;;2.97;1.98;;;3.70;99.30;;;;;;5061471;28;20017;-83
2021/11/27 08:47:50;;;;;;;3.47;2.60;;;3.80;99.30;;;;;;5053562;28;20017;-84
2021/11/27 08:50:16;;;;;;;3.85;2.88;;;3.80;99.30;;;;;;5028140;28;20104;-83
2021/11/27 08:52:42;;;;;;;4.97;2.90;;;3.90;99.10;;;;;;5027007;28;20076;-83
2021/11/27 08:55:11;;;;;;;3.58;2.65;;;3.90;98.90;;;;;;5026587;28;20032;-84
2021/11/27 08:57:39;;;;;;;4.13;2.60;;;3.90;98.80;;;;;;5043351;28;20045;-84
2021/11/27 09:00:07;;;;;;;4.65;3.13;;;3.90;98.70;;;;;;5042838;28;20512;-83
2021/11/27 09:02:33;;;;;;;5.00;2.72;;;3.80;98.60;;;;;;5026361;28;20033;-84
2021/11/27 09:04:59;;;;;;;4.55;3.20;;;3.80;98.70;;;;;;5026366;28;20022;-83
2021/11/27 09:07:24;;;;;;;4.32;3.47;;;3.90;98.60;;;;;;5029518;28;20089;-84
2021/11/27 09:09:56;;;;;;;4.80;2.45;;;3.90;98.70;;;;;;5013907;28;20041;-84
2021/11/27 09:12:22;;;;;;;3.80;2.70;;;3.90;98.70;;;;;;5031314;28;20038;-84
2021/11/27 09:14:51;;;;;;;3.53;2.70;;;3.90;98.70;;;;;;5050114;28;20005;-85
2021/11/27 09:17:18;;;;;;;5.13;3.50;;;3.90;98.70;;;;;;5052209;28;20043;-85
2021/11/27 09:19:44;;;;;;;4.05;2.70;;;3.90;98.70;;;;;;5047306;28;20049;-85
2021/11/27 09:22:10;;;;;;;4.78;3.33;;;3.90;98.70;;;;;;5065421;28;20028;-85
2021/11/27 09:24:36;;;;;;;4.63;3.03;;;3.80;98.80;;;;;;5071003;28;20041;-85
2021/11/27 09:27:02;;;;;;;4.20;3.00;;;3.90;98.90;;;;;;5063261;28;20040;-84
2021/11/27 09:29:29;;;;;;;5.88;3.13;;;3.80;98.90;;;;;;5050612;28;20109;-86
2021/11/27 09:31:55;;;;;;;4.25;3.13;;;3.90;98.90;;;;;;5045462;28;20045;-84
2021/11/27 09:34:21;;;;;;;2.92;2.50;;;3.90;99.00;;;;;;5027056;28;20036;-85
2021/11/27 09:36:49;;;;;;;5.57;2.78;;;3.90;99.00;;;;;;5025806;28;20029;-85
2021/11/27 09:39:16;;;;;;;4.45;3.28;;;3.90;99.10;;;;;;5043643;28;20053;-87
2021/11/27 09:41:45;;;;;;;3.85;2.65;;;3.90;99.10;;;;;;5025553;28;20021;-81
2021/11/27 09:44:13;;;;;;;2.83;2.33;;;4.00;99.10;;;;;;5042449;28;20053;-84
2021/11/27 09:46:42;;;;;;;4.32;2.88;;;3.90;99.00;;;;;;5024592;28;20030;-86
2021/11/27 09:49:18;;;;;;;2.97;2.40;;;3.90;99.10;;;;;;5042878;28;20028;-86
2021/11/27 09:51:44;;;;;;;3.50;2.28;;;4.00;99.20;;;;;;5025596;28;20033;-86
2021/11/27 09:54:12;;;;;;;5.07;3.20;;;4.10;99.20;;;;;;5026125;28;20494;-85
2021/11/27 09:56:39;;;;;;;4.03;2.38;;;4.10;99.20;;;;;;5045914;28;20029;-86
2021/11/27 09:59:05;;;;;;;4.40;2.80;;;4.10;99.30;;;;;;5043115;28;20025;-85
2021/11/27 10:01:34;;;;;;;3.00;2.53;;;4.00;99.20;;;;;;5044359;28;20032;-85
2021/11/27 10:04:04;;;;;;;4.47;3.05;;;4.10;99.40;;;;;;5034617;28;20022;-86
2021/11/27 10:06:33;;;;;;;3.90;2.90;;;4.10;99.50;;;;;;5036744;28;20500;-86
2021/11/27 10:09:00;;;;;;;3.10;2.35;;;4.00;99.50;;;;;;5053857;28;20013;-86
2021/11/27 10:11:26;;;;;;;2.53;2.25;;;4.00;99.50;;;;;;5035043;28;20056;-85
2021/11/27 10:13:52;;;;;;;3.22;2.17;;;4.00;99.50;;;;;;5038973;28;20067;-85
2021/11/27 10:16:19;;;;;;;2.60;2.28;;;4.00;99.70;;;;;;5027810;28;20022;-85
2021/11/27 10:19:08;;;;;;;2.95;1.80;;;4.00;99.70;;;;;;5047821;28;20030;-85
2021/11/27 10:21:36;;;;;;;3.97;2.13;;;4.10;99.90;;;;;;5054307;28;20037;-85
2021/11/27 10:24:27;;;;;;;2.03;1.65;;;4.20;99.90;;;;;;5030493;28;20026;-85
2021/11/27 10:26:54;;;;;;;2.33;1.80;;;4.50;99.90;;;;;;5030515;28;20044;-85
2021/11/27 10:29:33;;;;;;;1.77;1.67;;;4.70;99.70;;;;;;5020364;28;20041;-84
2021/11/27 10:32:17;;;;;;;1.60;1.50;;;4.80;99.30;;;;;;5011137;28;20038;-85
2021/11/27 10:34:49;;;;;;;2.15;1.50;;;4.90;98.90;;;;;;5029214;28;20033;-84
2021/11/27 10:37:36;;;;;;;2.63;1.50;;;5.00;98.70;;;;;;5027909;28;20136;-85
2021/11/27 10:40:13;;;;;;;1.50;1.40;;;5.10;98.20;;;;;;5028294;28;20029;-85
2021/11/27 10:42:48;;;;;;;2.40;1.88;;;5.20;98.00;;;;;;5018652;28;20121;-86
2021/11/27 10:45:29;;;;;;;1.70;1.33;;;5.10;97.80;;;;;;5026919;28;20077;-85
2021/11/27 10:48:15;;;;;;;2.25;1.80;;;5.20;97.50;;;;;;5015821;28;20080;-87
2021/11/27 10:50:52;;;;;;;2.90;1.90;;;5.20;97.40;;;;;;5046864;28;20018;-85
2021/11/27 10:53:32;;;;;;;1.55;1.45;;;5.20;97.30;;;;;;5040877;28;20018;-83
2021/11/27 10:56:09;;;;;;;1.80;1.45;;;5.30;97.20;;;;;;5038211;28;20037;-84
2021/11/27 10:59:03;;;;;;;1.67;1.58;;;5.30;97.00;;;;;;5028874;28;20163;-85
2021/11/27 11:01:29;;;;;;;2.47;1.70;;;5.50;96.90;;;;;;5057489;28;20021;-84
2021/11/27 11:03:55;;;;;;;2.25;1.95;;;5.50;96.60;;;;;;5054021;28;20488;-83
2021/11/27 11:06:23;;;;;;;1.75;1.58;;;5.50;96.40;;;;;;5052992;28;20048;-84
2021/11/27 11:08:51;;;;;;;3.15;1.80;;;5.50;96.50;;;;;;5060157;28;20026;-84
2021/11/27 11:11:25;;;;;;;2.95;1.60;;;5.50;96.40;;;;;;5048608;28;20018;-84
2021/11/27 11:13:55;;;;;;;2.50;2.00;;;5.50;96.30;;;;;;5046393;28;20021;-83
2021/11/27 11:16:29;;;;;;;2.63;1.92;;;5.50;96.20;;;;;;5049224;28;20486;-84
2021/11/27 11:19:16;;;;;;;2.30;1.70;;;5.40;96.30;;;;;;5035497;28;20033;-84
2021/11/27 11:22:10;;;;;;;2.20;1.60;;;5.50;96.50;;;;;;5059531;28;20037;-84
2021/11/27 11:24:41;;;;;;;2.35;1.52;;;5.40;96.50;;;;;;5030385;28;20052;-84
2021/11/27 11:27:09;;;;;;;2.83;1.63;;;5.40;96.60;;;;;;5047348;28;20028;-84
2021/11/27 11:30:05;;;;;;;2.28;1.65;;;5.30;96.70;;;;;;5048105;28;20026;-84
2021/11/27 11:32:31;;;;;;;4.47;2.20;;;5.30;96.80;;;;;;5013540;28;20036;-84
2021/11/27 11:35:02;;;;;;;2.60;1.92;;;5.30;96.60;;;;;;5047273;28;20026;-84
2021/11/27 11:37:28;;;;;;;2.80;2.00;;;5.30;96.60;;;;;;5047791;28;20087;-84
2021/11/27 11:39:56;;;;;;;2.90;2.00;;;5.30;96.70;;;;;;5047591;28;20026;-85
2021/11/27 11:42:25;;;;;;;2.65;1.95;;;5.30;96.80;;;;;;5050440;28;20033;-84
2021/11/27 11:44:54;;;;;;;2.55;1.83;;;5.30;96.80;;;;;;5038013;28;20085;-84
2021/11/27 11:47:21;;;;;;;3.42;2.47;;;5.30;96.80;;;;;;5012355;28;20034;-84
2021/11/27 11:49:55;;;;;;;2.55;1.83;;;5.40;96.80;;;;;;5030762;28;20022;-84
2021/11/27 11:52:41;;;;;;;4.40;2.40;;;5.40;96.70;;;;;;5046538;28;20471;-86
2021/11/27 11:55:17;;;;;;;2.75;1.60;;;5.50;96.70;;;;;;5028742;28;20029;-84
2021/11/27 11:57:52;;;;;;;2.47;1.80;;;5.60;96.60;;;;;;5028871;28;20060;-86
2021/11/27 12:00:35;;;;;;;2.60;1.70;;;5.60;96.40;;;;;;5048129;28;20048;-84
2021/11/27 12:03:11;;;;;;;3.10;1.95;;;5.60;96.30;;;;;;5049923;28;20025;-84
2021/11/27 12:06:07;;;;;;;2.33;1.95;;;5.70;96.10;;;;;;5046505;28;20109;-84
2021/11/27 12:08:48;;;;;;;2.22;1.90;;;5.80;95.80;;;;;;5047945;28;20025;-83
2021/11/27 12:11:39;;;;;;;5.07;2.33;;;5.70;95.70;;;;;;5035865;28;20113;-83
2021/11/27 12:14:25;;;;;;;2.72;2.10;;;5.60;95.40;;;;;;5054759;28;20026;-85
2021/11/27 12:17:02;;;;;;;3.30;1.90;;;5.60;95.70;;;;;;5057408;28;20029;-86
2021/11/27 12:19:44;;;;;;;4.65;2.10;;;5.60;95.70;;;;;;5028004;28;20056;-86
2021/11/27 12:22:33;;;;;;;4.25;2.55;;;5.60;95.70;;;;;;5028386;28;20033;-85
2021/11/27 12:25:04;;;;;;;2.10;1.85;;;5.70;95.50;;;;;;5033788;28;20088;-85
2021/11/27 12:27:29;;;;;;;2.50;1.83;;;5.70;95.50;;;;;;5059033;28;20048;-85
2021/11/27 12:30:09;;;;;;;3.15;2.03;;;5.80;95.20;;;;;;5033745;28;20033;-84
2021/11/27 12:32:44;;;;;;;3.00;2.28;;;5.90;95.10;;;;;;5046071;28;20438;-85
2021/11/27 12:35:29;;;;;;;3.50;2.03;;;6.00;94.70;;;;;;5042909;28;20021;-85
2021/11/27 12:38:17;;;;;;;3.63;2.20;;;6.00;94.60;;;;;;5021658;28;20026;-85
2021/11/27 12:40:48;;;;;;;3.28;2.90;;;6.10;94.20;;;;;;5026128;28;20068;-86
2021/11/27 12:43:18;;;;;;;4.83;3.57;;;5.90;93.80;;;;;;5039125;28;20500;-85
2021/11/27 12:45:47;;;;;;;5.35;3.13;;;5.80;93.80;;;;;;5037526;28;20108;-86
2021/11/27 12:48:31;;;;;;;3.28;2.00;;;5.70;93.90;;;;;;5038332;28;20498;-86
2021/11/27 12:51:16;;;;;;;2.60;2.10;;;5.60;93.70;;;;;;5039371;28;20026;-86
2021/11/27 12:54:03;;;;;;;2.88;1.70;;;5.40;94.30;;;;;;5041148;28;20071;-85
2021/11/27 12:56:28;;;;;;;1.95;1.75;;;5.20;95.00;;;;;;5012937;28;20040;-86
2021/11/27 12:58:57;;;;;;;2.67;2.13;;;5.00;95.50;;;;;;5039992;28;20018;-86
2021/11/27 13:01:28;;;;;;;3.05;1.98;;;4.90;96.10;;;;;;5041245;28;20238;-87
2021/11/27 13:03:55;;;;;;;3.55;2.03;;;4.90;96.60;;;;;;5038636;28;20028;-86
2021/11/27 13:06:21;;;;;;;3.05;1.52;;;4.90;97.10;;;;;;5041069;28;20382;-85